METAR Data
IDs: Format: Raw Decoded Include TAF

Data at: 0838 UTC 01 Aug 2021

ETAR 010756Z AUTO 28005KT 9999 FEW090 16/13 A2985 RMK AO2 SLP107 T01590130